Terminal Aerodrome Forecast
Issued by NWS

Home | Current Version | Previous Version | Text Only | Print | Product List | Glossary On
Versions: 1 2 3 4 5 6 7 8 9 10 11 12 13 14 15
195
FTUS43 KFGF 122330
TAFTVF
TAF
KTVF 122330Z 1300/1324 31011KT P6SM SKC
     FM130200 VRB04KT P6SM SKC
     FM131700 14008KT P6SM SCT250
     FM132000 14012G17KT P6SM BKN120=

USA.gov is the U.S. government's official web portal to all federal, state and local government web resources and services.